Time;durP1;ratioP1;P1;durP2;ratioP2;P2;SDS_P1;SDS_P2;PMS_P1;PMS_P2;Temp;Humidity;BMP_temperature;BMP_pressure;BME280_temperature;BME280_humidity;BME280_pressure;Samples;Min_cycle;Max_cycle;Signal;HPM_P1;HPM_P2
2023/08/09 00:01:17;;;;;;;8.40;3.30;;;12.10;1.00;;;;;;5035329;28;20401;-68
2023/08/09 00:03:43;;;;;;;8.47;2.03;;;12.20;1.00;;;;;;5036611;28;20191;-67
2023/08/09 00:06:09;;;;;;;5.20;2.30;;;12.10;1.00;;;;;;5023455;28;20532;-69
2023/08/09 00:08:34;;;;;;;6.70;2.00;;;12.10;1.00;;;;;;5016689;28;20590;-66
2023/08/09 00:11:01;;;;;;;14.60;4.33;;;12.00;1.00;;;;;;5030031;28;20171;-69
2023/08/09 00:13:26;;;;;;;4.07;2.23;;;12.00;1.00;;;;;;5036504;28;20175;-68
2023/08/09 00:15:52;;;;;;;8.93;3.63;;;12.10;1.00;;;;;;5035473;28;20929;-66
2023/08/09 00:18:19;;;;;;;8.33;2.10;;;12.00;1.00;;;;;;5036444;28;20187;-67
2023/08/09 00:20:45;;;;;;;15.07;2.83;;;12.00;1.00;;;;;;5032439;28;20170;-67
2023/08/09 00:23:10;;;;;;;9.43;2.00;;;12.10;1.00;;;;;;5033788;28;20506;-66
2023/08/09 00:25:38;;;;;;;6.83;2.20;;;12.10;1.00;;;;;;5033627;28;20438;-67
2023/08/09 00:28:04;;;;;;;13.10;2.50;;;12.10;1.00;;;;;;5036577;28;20180;-67
2023/08/09 00:30:30;;;;;;;6.43;2.60;;;12.10;1.00;;;;;;5034724;28;20394;-67
2023/08/09 00:32:56;;;;;;;7.63;2.20;;;12.10;1.00;;;;;;5036342;28;20902;-66
2023/08/09 00:35:22;;;;;;;9.67;2.70;;;12.10;1.00;;;;;;5034074;28;20175;-67
2023/08/09 00:37:48;;;;;;;5.07;2.70;;;12.20;1.00;;;;;;5033675;28;20442;-68
2023/08/09 00:40:13;;;;;;;8.13;2.27;;;12.20;1.00;;;;;;5035012;28;20286;-67
2023/08/09 00:42:40;;;;;;;7.00;2.43;;;12.20;1.00;;;;;;5036156;28;20167;-66
2023/08/09 00:45:07;;;;;;;9.37;2.60;;;12.20;1.00;;;;;;5035021;28;20250;-66
2023/08/09 00:47:34;;;;;;;7.93;2.20;;;12.20;1.00;;;;;;5035606;28;20958;-67
2023/08/09 00:50:01;;;;;;;5.03;2.90;;;12.20;1.00;;;;;;5034542;28;20402;-67
2023/08/09 00:52:27;;;;;;;7.57;2.43;;;12.10;1.00;;;;;;5033356;28;20490;-67
2023/08/09 00:54:53;;;;;;;10.57;2.20;;;12.10;1.00;;;;;;5033434;28;20423;-67
2023/08/09 00:57:20;;;;;;;4.07;2.40;;;12.10;1.00;;;;;;5034865;28;20509;-66
2023/08/09 00:59:46;;;;;;;6.17;2.10;;;12.10;1.00;;;;;;5035581;28;20402;-67
2023/08/09 01:02:12;;;;;;;5.13;2.43;;;12.00;1.00;;;;;;5035747;28;20763;-66
2023/08/09 01:04:38;;;;;;;10.17;2.37;;;12.00;1.00;;;;;;5035509;28;20420;-66
2023/08/09 01:07:26;;;;;;;7.10;2.73;;;12.00;1.00;;;;;;5033396;28;20473;-67
2023/08/09 01:09:52;;;;;;;11.37;2.93;;;12.00;1.00;;;;;;5033246;28;20771;-66
2023/08/09 01:12:26;;;;;;;7.10;2.60;;;12.10;1.00;;;;;;5033163;28;20405;-67
2023/08/09 01:14:56;;;;;;;7.47;2.60;;;12.10;1.00;;;;;;5033039;28;20518;-69
2023/08/09 01:17:24;;;;;;;13.43;3.93;;;12.10;1.00;;;;;;5034290;28;20458;-67
2023/08/09 01:19:54;;;;;;;4.40;2.20;;;12.10;1.00;;;;;;5035334;28;20975;-68
2023/08/09 01:22:35;;;;;;;6.30;3.07;;;12.00;1.00;;;;;;5035459;28;20741;-68
2023/08/09 01:25:06;;;;;;;9.63;2.60;;;12.00;1.00;;;;;;5034914;28;20802;-77
2023/08/09 01:27:33;;;;;;;12.80;2.53;;;12.00;1.00;;;;;;5027599;28;20854;-68
2023/08/09 01:30:00;;;;;;;10.00;2.60;;;11.90;1.00;;;;;;5034419;28;20391;-67
2023/08/09 01:32:27;;;;;;;4.40;2.10;;;11.90;1.00;;;;;;5033862;28;20482;-68
2023/08/09 01:34:54;;;;;;;7.30;2.40;;;11.80;1.00;;;;;;5034948;28;20428;-68
2023/08/09 01:37:27;;;;;;;3.23;1.80;;;11.80;1.00;;;;;;5034007;28;20507;-66
2023/08/09 01:39:56;;;;;;;15.20;2.50;;;11.80;1.00;;;;;;5034089;28;20441;-67
2023/08/09 01:42:22;;;;;;;11.13;3.97;;;11.80;1.00;;;;;;5031500;28;20436;-67
2023/08/09 01:44:50;;;;;;;7.07;2.80;;;11.80;1.00;;;;;;5014375;28;20545;-66
2023/08/09 01:47:16;;;;;;;3.77;2.37;;;11.70;1.00;;;;;;5012581;28;20397;-67
2023/08/09 01:49:48;;;;;;;3.80;2.20;;;11.80;1.00;;;;;;5030032;28;20936;-68
2023/08/09 01:52:15;;;;;;;8.73;2.73;;;11.80;1.00;;;;;;5034711;28;20918;-66
2023/08/09 01:54:41;;;;;;;7.37;2.93;;;11.80;1.00;;;;;;5033514;28;20422;-69
2023/08/09 01:57:07;;;;;;;6.70;2.57;;;11.80;1.00;;;;;;5033576;28;20401;-67
2023/08/09 01:59:32;;;;;;;11.50;3.13;;;11.80;1.00;;;;;;5034561;28;20467;-66
2023/08/09 02:01:58;;;;;;;10.23;2.93;;;11.70;1.00;;;;;;5033581;28;20241;-67
2023/08/09 02:04:25;;;;;;;7.57;2.70;;;11.70;1.00;;;;;;5033935;28;20345;-69
2023/08/09 02:06:50;;;;;;;5.50;2.63;;;11.70;1.00;;;;;;5032384;28;20184;-66
2023/08/09 02:09:16;;;;;;;6.97;2.47;;;11.70;1.00;;;;;;5029678;28;20946;-66
2023/08/09 02:11:42;;;;;;;2.97;2.67;;;11.70;1.00;;;;;;5034235;28;20247;-67
2023/08/09 02:14:07;;;;;;;6.37;2.27;;;11.60;1.00;;;;;;5034083;28;20269;-68
2023/08/09 02:16:33;;;;;;;6.90;2.60;;;11.70;1.00;;;;;;5030815;28;20179;-66
2023/08/09 02:18:59;;;;;;;6.67;2.50;;;11.70;1.00;;;;;;5014978;28;20261;-67
2023/08/09 02:21:26;;;;;;;5.43;2.40;;;11.60;1.00;;;;;;5014382;28;20172;-67
2023/08/09 02:23:52;;;;;;;6.10;2.47;;;11.70;1.00;;;;;;5015823;28;20442;-66
2023/08/09 02:26:18;;;;;;;4.93;2.43;;;11.70;1.00;;;;;;5032674;28;20394;-67
2023/08/09 02:28:45;;;;;;;13.00;2.63;;;11.60;1.00;;;;;;5034063;28;20397;-66
2023/08/09 02:31:11;;;;;;;6.13;3.33;;;11.70;1.00;;;;;;5032764;28;20406;-67
2023/08/09 02:33:37;;;;;;;4.70;2.30;;;11.70;1.00;;;;;;5033961;28;20378;-70
2023/08/09 02:36:04;;;;;;;5.07;3.20;;;11.70;1.00;;;;;;5032847;28;20417;-66
2023/08/09 02:38:34;;;;;;;6.00;3.03;;;11.70;1.00;;;;;;5032550;28;20445;-67
2023/08/09 02:41:00;;;;;;;5.43;2.60;;;11.70;1.00;;;;;;5032945;28;20747;-71
2023/08/09 02:43:26;;;;;;;9.83;2.90;;;11.70;1.00;;;;;;5031695;28;20436;-66
2023/08/09 02:45:53;;;;;;;4.43;2.40;;;11.70;1.00;;;;;;5031833;28;20406;-67
2023/08/09 02:48:19;;;;;;;10.53;3.17;;;11.70;1.00;;;;;;5032560;28;20461;-67
2023/08/09 02:50:46;;;;;;;10.23;2.57;;;11.70;1.00;;;;;;5032571;28;20441;-66
2023/08/09 02:53:12;;;;;;;5.73;2.47;;;11.70;1.00;;;;;;5031816;28;20453;-75
2023/08/09 02:55:38;;;;;;;9.50;2.43;;;11.70;1.00;;;;;;5029088;28;20409;-69
2023/08/09 02:58:05;;;;;;;9.40;2.80;;;11.80;3.30;;;;;;5031820;28;20481;-66
2023/08/09 03:00:32;;;;;;;6.10;2.73;;;11.80;9.20;;;;;;5032410;28;20433;-67
2023/08/09 03:02:59;;;;;;;6.40;3.00;;;11.80;10.30;;;;;;5031356;28;20446;-67
2023/08/09 03:05:25;;;;;;;11.07;2.67;;;11.80;11.10;;;;;;5031700;28;20492;-67
2023/08/09 03:07:51;;;;;;;6.63;2.83;;;11.90;14.70;;;;;;5033390;28;20865;-67
2023/08/09 03:10:18;;;;;;;5.17;2.03;;;11.90;15.30;;;;;;5031011;28;20430;-67
2023/08/09 03:12:44;;;;;;;7.77;3.03;;;11.90;18.00;;;;;;5033397;28;20369;-67
2023/08/09 03:15:10;;;;;;;9.00;3.03;;;11.90;17.50;;;;;;5032523;28;20399;-67
2023/08/09 03:17:37;;;;;;;5.13;2.73;;;11.90;20.60;;;;;;5030454;28;20437;-67
2023/08/09 03:20:13;;;;;;;8.40;2.60;;;11.90;25.70;;;;;;5031775;28;20775;-69
2023/08/09 03:22:38;;;;;;;4.70;2.97;;;11.80;29.10;;;;;;5033072;28;20369;-66
2023/08/09 03:25:04;;;;;;;4.40;3.03;;;11.90;33.90;;;;;;5026807;28;20441;-67
2023/08/09 03:27:30;;;;;;;2.77;2.43;;;11.90;45.00;;;;;;5032454;28;20246;-66
2023/08/09 03:29:56;;;;;;;5.43;2.60;;;11.80;40.10;;;;;;5031966;28;20221;-66
2023/08/09 03:32:22;;;;;;;11.93;3.00;;;11.90;52.70;;;;;;5031979;28;20183;-67
2023/08/09 03:34:47;;;;;;;3.83;3.53;;;11.90;62.00;;;;;;5031732;28;20724;-69
2023/08/09 03:37:13;;;;;;;6.80;2.30;;;11.90;67.20;;;;;;5031906;28;20421;-66
2023/08/09 03:39:39;;;;;;;14.77;3.10;;;11.90;66.90;;;;;;5031225;28;20188;-73
2023/08/09 03:42:05;;;;;;;15.83;3.27;;;12.00;71.00;;;;;;5032958;28;20620;-66
2023/08/09 03:44:31;;;;;;;7.53;4.30;;;12.00;72.60;;;;;;5033072;28;20810;-67
2023/08/09 03:46:56;;;;;;;7.53;2.30;;;12.00;73.80;;;;;;5032144;28;20404;-66
2023/08/09 03:49:22;;;;;;;3.30;1.90;;;12.10;82.00;;;;;;5031615;28;20209;-67
2023/08/09 03:51:48;;;;;;;7.90;2.70;;;12.10;82.00;;;;;;5031595;28;20168;-66
2023/08/09 03:54:13;;;;;;;16.30;3.20;;;12.10;80.70;;;;;;5031669;28;20179;-66
2023/08/09 03:56:40;;;;;;;7.70;2.90;;;12.10;81.90;;;;;;5030618;28;20179;-67
2023/08/09 03:59:07;;;;;;;4.03;2.30;;;12.10;80.90;;;;;;5032209;28;20168;-67
2023/08/09 04:01:33;;;;;;;16.47;4.33;;;12.20;82.10;;;;;;5032304;28;20396;-66
2023/08/09 04:03:59;;;;;;;6.20;3.17;;;12.20;80.20;;;;;;5032974;28;20533;-67
2023/08/09 04:06:25;;;;;;;7.80;2.80;;;12.10;73.40;;;;;;5032116;28;20448;-70
2023/08/09 04:08:50;;;;;;;7.77;4.97;;;12.20;71.60;;;;;;5031466;28;20203;-67
2023/08/09 04:11:16;;;;;;;10.80;2.90;;;12.20;68.90;;;;;;5036670;28;20168;-66
2023/08/09 04:13:42;;;;;;;7.90;2.63;;;12.20;69.00;;;;;;5036400;28;20183;-67
2023/08/09 04:16:08;;;;;;;4.20;2.50;;;12.20;69.60;;;;;;5034587;28;20202;-67
2023/08/09 04:18:34;;;;;;;8.20;2.87;;;12.20;66.60;;;;;;5025516;28;20423;-67
2023/08/09 04:21:00;;;;;;;9.93;2.40;;;12.20;69.00;;;;;;5032016;28;20414;-67
2023/08/09 04:23:25;;;;;;;6.07;2.10;;;12.20;74.70;;;;;;5030684;28;20206;-67
2023/08/09 04:25:51;;;;;;;3.90;2.87;;;12.20;72.70;;;;;;5029304;28;20175;-67
2023/08/09 04:28:17;;;;;;;4.13;2.77;;;12.30;77.10;;;;;;5036126;28;20188;-69
2023/08/09 04:30:43;;;;;;;8.53;2.30;;;12.30;81.80;;;;;;5035760;28;20164;-69
2023/08/09 04:33:08;;;;;;;10.73;3.43;;;12.30;79.40;;;;;;5035886;28;20178;-67
2023/08/09 04:35:35;;;;;;;4.83;2.70;;;12.30;80.20;;;;;;5034600;28;20636;-67
2023/08/09 04:38:04;;;;;;;6.47;2.77;;;12.30;82.20;;;;;;5033879;28;20207;-70
2023/08/09 04:40:31;;;;;;;6.83;2.20;;;12.40;79.00;;;;;;5036232;28;20425;-67
2023/08/09 04:42:57;;;;;;;7.43;2.83;;;12.30;65.10;;;;;;5035988;28;20852;-71
2023/08/09 04:45:24;;;;;;;6.67;2.40;;;12.20;62.80;;;;;;5034973;28;20452;-66
2023/08/09 04:47:52;;;;;;;9.50;2.60;;;12.20;68.30;;;;;;5035631;28;20389;-69
2023/08/09 04:50:21;;;;;;;6.33;2.27;;;12.30;71.40;;;;;;5035488;28;20755;-67
2023/08/09 04:52:47;;;;;;;7.53;2.20;;;12.20;69.10;;;;;;5032614;28;20405;-73
2023/08/09 04:55:12;;;;;;;7.67;2.43;;;12.30;79.70;;;;;;5034253;28;20450;-67
2023/08/09 04:57:38;;;;;;;2.40;2.23;;;12.40;82.20;;;;;;5035790;28;20242;-67
2023/08/09 05:00:09;;;;;;;11.90;3.03;;;12.40;82.20;;;;;;5033038;28;20167;-67
2023/08/09 05:02:36;;;;;;;10.60;3.10;;;12.40;82.20;;;;;;5035933;28;20175;-66
2023/08/09 05:05:08;;;;;;;6.10;2.43;;;12.40;82.20;;;;;;5034886;28;20448;-78
2023/08/09 05:07:35;;;;;;;8.23;2.40;;;12.40;82.20;;;;;;5034405;28;20541;-66
2023/08/09 05:10:02;;;;;;;7.73;2.73;;;12.50;82.40;;;;;;5034730;28;20426;-67
2023/08/09 05:12:28;;;;;;;5.80;2.43;;;12.50;82.50;;;;;;5035044;28;20398;-67
2023/08/09 05:14:54;;;;;;;3.70;2.47;;;12.60;88.90;;;;;;5034104;28;20627;-73
2023/08/09 05:17:20;;;;;;;6.67;2.63;;;12.60;83.70;;;;;;5034567;28;20953;-67
2023/08/09 05:19:45;;;;;;;6.30;2.77;;;12.60;82.50;;;;;;5034959;28;20406;-67
2023/08/09 05:22:11;;;;;;;9.30;2.77;;;12.60;83.40;;;;;;5031554;28;20171;-68
2023/08/09 05:24:37;;;;;;;6.40;2.27;;;12.70;91.60;;;;;;5035302;28;20668;-67
2023/08/09 05:27:02;;;;;;;5.60;2.70;;;12.70;94.10;;;;;;5033619;28;20254;-70
2023/08/09 05:29:28;;;;;;;8.40;2.63;;;12.80;95.60;;;;;;5032927;28;20183;-68
2023/08/09 05:31:54;;;;;;;8.77;2.40;;;12.80;95.30;;;;;;5034732;28;20187;-67
2023/08/09 05:34:19;;;;;;;8.40;2.83;;;12.90;96.80;;;;;;5035101;28;20171;-67
2023/08/09 05:36:45;;;;;;;4.17;2.40;;;12.90;97.30;;;;;;5032804;28;20585;-67
2023/08/09 05:39:12;;;;;;;6.10;2.80;;;13.00;98.00;;;;;;5035026;28;20171;-67
2023/08/09 05:41:38;;;;;;;7.60;3.83;;;13.00;97.30;;;;;;5033608;28;20418;-67
2023/08/09 05:44:04;;;;;;;5.20;2.83;;;13.00;96.80;;;;;;5034630;28;20446;-67
2023/08/09 05:46:30;;;;;;;12.50;4.53;;;13.00;93.60;;;;;;5032255;28;20483;-66
2023/08/09 05:48:56;;;;;;;4.60;2.63;;;13.00;92.00;;;;;;5032484;28;20305;-67
2023/08/09 05:51:22;;;;;;;8.33;2.70;;;13.00;89.30;;;;;;5034569;28;20239;-67
2023/08/09 05:53:48;;;;;;;9.17;3.03;;;13.00;82.80;;;;;;5020841;28;20720;-67
2023/08/09 05:56:14;;;;;;;9.93;3.20;;;13.00;83.50;;;;;;5029309;28;20377;-70
2023/08/09 05:58:39;;;;;;;5.53;2.40;;;13.00;84.90;;;;;;5015110;28;20291;-68
2023/08/09 06:01:07;;;;;;;4.17;2.83;;;13.00;87.60;;;;;;5014440;28;20184;-67
2023/08/09 06:03:37;;;;;;;13.20;2.93;;;13.00;89.00;;;;;;5014500;28;20685;-68
2023/08/09 06:06:03;;;;;;;3.53;3.23;;;13.10;83.10;;;;;;5013263;28;20486;-67
2023/08/09 06:08:29;;;;;;;7.97;2.87;;;13.10;82.80;;;;;;5024376;28;20608;-67
2023/08/09 06:10:54;;;;;;;11.23;2.90;;;13.10;82.90;;;;;;5034168;28;20163;-67
2023/08/09 06:13:20;;;;;;;3.70;1.97;;;13.10;78.30;;;;;;5034206;28;20186;-67
2023/08/09 06:15:46;;;;;;;13.53;3.60;;;13.10;76.30;;;;;;5033406;28;20632;-67
2023/08/09 06:18:11;;;;;;;6.37;2.60;;;13.20;79.20;;;;;;5033853;28;20221;-67
2023/08/09 06:20:37;;;;;;;13.00;2.13;;;13.20;76.30;;;;;;5034163;28;20183;-67
2023/08/09 06:23:03;;;;;;;11.60;3.70;;;13.20;69.70;;;;;;5030925;28;20193;-67
2023/08/09 06:25:29;;;;;;;8.27;2.73;;;13.10;61.80;;;;;;5032082;28;20156;-68
2023/08/09 06:27:54;;;;;;;15.00;3.90;;;13.10;48.80;;;;;;5029514;28;20266;-67
2023/08/09 06:30:20;;;;;;;8.17;3.13;;;13.20;53.50;;;;;;5012861;28;20175;-68
2023/08/09 06:32:46;;;;;;;14.10;3.83;;;13.20;45.40;;;;;;5028971;28;20229;-67
2023/08/09 06:35:12;;;;;;;7.63;2.90;;;13.30;35.50;;;;;;5023185;28;20175;-67
2023/08/09 06:37:38;;;;;;;9.03;2.67;;;13.30;35.40;;;;;;5023117;28;20278;-67
2023/08/09 06:40:07;;;;;;;9.27;3.83;;;13.30;25.50;;;;;;5012781;28;20210;-67
2023/08/09 06:42:33;;;;;;;7.93;3.17;;;13.30;19.80;;;;;;5012010;28;20412;-67
2023/08/09 06:45:00;;;;;;;12.00;2.97;;;13.30;16.40;;;;;;5013004;28;20454;-67
2023/08/09 06:47:26;;;;;;;7.73;2.60;;;13.40;12.30;;;;;;5013532;28;20423;-68
2023/08/09 06:49:51;;;;;;;13.33;3.50;;;13.40;1.00;;;;;;5012629;28;20412;-68
2023/08/09 06:52:17;;;;;;;10.27;2.73;;;13.20;1.00;;;;;;5025867;28;20183;-67
2023/08/09 06:54:43;;;;;;;13.60;5.23;;;13.30;1.00;;;;;;5015472;28;20176;-67
2023/08/09 06:57:08;;;;;;;13.20;4.27;;;13.40;1.00;;;;;;5013074;28;20279;-69
2023/08/09 06:59:34;;;;;;;5.63;3.57;;;13.40;1.00;;;;;;5013836;28;20176;-67
2023/08/09 07:02:00;;;;;;;8.40;2.67;;;13.40;1.00;;;;;;5023574;28;20183;-69
2023/08/09 07:04:26;;;;;;;11.90;3.00;;;13.50;1.00;;;;;;5033576;28;20258;-66
2023/08/09 07:06:52;;;;;;;7.20;2.90;;;13.60;1.00;;;;;;5027368;28;20206;-68
2023/08/09 07:09:18;;;;;;;9.90;3.40;;;13.70;1.00;;;;;;5030455;28;20552;-67
2023/08/09 07:11:48;;;;;;;13.30;3.30;;;13.70;1.00;;;;;;5038238;28;20454;-70
2023/08/09 07:14:13;;;;;;;19.60;3.50;;;13.80;1.00;;;;;;5025569;28;20941;-68
2023/08/09 07:16:39;;;;;;;13.87;4.00;;;14.00;1.00;;;;;;5017858;28;20426;-68
2023/08/09 07:19:05;;;;;;;9.83;2.83;;;14.00;1.00;;;;;;5025052;28;20179;-68
2023/08/09 07:21:30;;;;;;;9.93;3.20;;;14.20;1.00;;;;;;5026763;28;20218;-67
2023/08/09 07:23:56;;;;;;;17.87;2.93;;;14.40;1.00;;;;;;5029684;28;20200;-68
2023/08/09 07:26:22;;;;;;;9.77;3.40;;;14.40;1.00;;;;;;5013193;28;20187;-68
2023/08/09 07:28:47;;;;;;;12.63;4.10;;;14.60;1.00;;;;;;5032758;28;20518;-67
2023/08/09 07:31:20;;;;;;;14.53;4.20;;;14.70;1.00;;;;;;5033006;28;20172;-68
2023/08/09 07:33:46;;;;;;;8.60;3.43;;;14.70;1.00;;;;;;5018526;28;20653;-67
2023/08/09 07:36:12;;;;;;;11.57;3.20;;;14.80;1.00;;;;;;5011701;28;20513;-68
2023/08/09 07:38:38;;;;;;;4.47;2.17;;;14.70;1.00;;;;;;5020368;28;20997;-71
2023/08/09 07:41:04;;;;;;;6.00;3.00;;;14.60;1.00;;;;;;5032841;28;20945;-69
2023/08/09 07:43:30;;;;;;;3.10;2.80;;;14.60;1.00;;;;;;5031556;28;20202;-70
2023/08/09 07:45:56;;;;;;;14.63;3.23;;;14.70;1.00;;;;;;5036008;28;20402;-67
2023/08/09 07:48:22;;;;;;;7.73;2.70;;;14.80;1.00;;;;;;5034564;28;20446;-67
2023/08/09 07:50:48;;;;;;;10.33;3.67;;;15.00;1.00;;;;;;5031184;28;20222;-68
2023/08/09 07:53:14;;;;;;;7.43;2.60;;;15.10;1.00;;;;;;5030340;28;20517;-67
2023/08/09 07:55:40;;;;;;;9.43;3.20;;;15.20;1.00;;;;;;5024096;28;20498;-67
2023/08/09 07:58:06;;;;;;;13.20;3.23;;;15.10;99.90;;;;;;5034738;28;20493;-67
2023/08/09 08:00:33;;;;;;;6.03;2.87;;;15.30;99.90;;;;;;5032804;28;20279;-68
2023/08/09 08:02:59;;;;;;;7.43;2.80;;;15.40;99.90;;;;;;5021138;28;20437;-67
2023/08/09 08:05:25;;;;;;;10.03;2.77;;;15.50;99.90;;;;;;5014997;28;20410;-67
2023/08/09 08:07:51;;;;;;;12.70;3.53;;;15.70;99.90;;;;;;5025720;28;20442;-66
2023/08/09 08:10:17;;;;;;;9.83;3.63;;;15.90;99.90;;;;;;5035155;28;20413;-67
2023/08/09 08:12:46;;;;;;;7.37;2.00;;;15.90;99.90;;;;;;5035774;28;20410;-67
2023/08/09 08:15:14;;;;;;;7.40;2.67;;;15.90;99.90;;;;;;5032523;28;20418;-67
2023/08/09 08:17:41;;;;;;;11.63;3.07;;;15.70;99.90;;;;;;5035063;28;20426;-67
2023/08/09 08:20:10;;;;;;;10.13;2.23;;;15.60;99.90;;;;;;5036435;28;20406;-67
2023/08/09 08:22:37;;;;;;;8.90;3.63;;;15.50;99.90;;;;;;5025316;28;20934;-67
2023/08/09 08:25:04;;;;;;;10.60;3.40;;;15.50;99.90;;;;;;5033263;28;20445;-74
2023/08/09 08:27:34;;;;;;;5.00;2.70;;;15.50;99.90;;;;;;5036223;28;20926;-67
2023/08/09 08:30:00;;;;;;;12.73;2.90;;;15.60;99.90;;;;;;5035900;28;20469;-70
2023/08/09 08:32:26;;;;;;;6.93;3.10;;;15.80;99.90;;;;;;5035793;28;20401;-68
2023/08/09 08:34:56;;;;;;;9.13;2.77;;;15.90;99.90;;;;;;5034687;28;20600;-69
2023/08/09 08:37:22;;;;;;;4.80;2.07;;;16.10;99.00;;;;;;5034585;28;20191;-68
2023/08/09 08:39:48;;;;;;;5.43;2.10;;;16.20;94.30;;;;;;5036138;28;20410;-69
2023/08/09 08:42:14;;;;;;;9.57;1.97;;;16.40;72.50;;;;;;5036074;28;20413;-68
2023/08/09 08:44:40;;;;;;;9.33;3.23;;;16.50;8.90;;;;;;5035883;28;20199;-67
2023/08/09 08:47:06;;;;;;;8.33;2.73;;;16.50;1.00;;;;;;5033692;28;20249;-67
2023/08/09 08:49:34;;;;;;;6.70;2.00;;;16.60;1.00;;;;;;5034747;28;20465;-67
2023/08/09 08:52:06;;;;;;;6.00;2.80;;;16.80;1.00;;;;;;5035740;28;20438;-67
2023/08/09 08:54:32;;;;;;;7.53;1.90;;;16.80;1.00;;;;;;5019170;28;21056;-66
2023/08/09 08:56:58;;;;;;;6.27;2.40;;;16.60;1.00;;;;;;5014301;28;20458;-67
2023/08/09 08:59:25;;;;;;;9.40;2.77;;;16.10;1.00;;;;;;5014889;28;20423;-67
2023/08/09 09:01:51;;;;;;;8.70;4.20;;;16.00;1.00;;;;;;5015752;28;20411;-68
2023/08/09 09:04:17;;;;;;;7.10;2.40;;;16.20;1.00;;;;;;5033574;28;20458;-67
2023/08/09 09:06:43;;;;;;;11.27;3.23;;;16.30;1.00;;;;;;5032729;28;20854;-67
2023/08/09 09:09:15;;;;;;;6.50;2.73;;;16.60;1.00;;;;;;5032822;28;20171;-69
2023/08/09 09:11:44;;;;;;;5.90;2.67;;;16.70;1.00;;;;;;5034011;28;20422;-67
2023/08/09 09:14:11;;;;;;;9.83;2.20;;;16.70;1.00;;;;;;5035426;28;20477;-70
2023/08/09 09:16:37;;;;;;;14.03;3.30;;;16.70;1.00;;;;;;5033229;28;20432;-68
2023/08/09 09:19:04;;;;;;;7.53;3.10;;;16.80;1.00;;;;;;5023541;28;20963;-67
2023/08/09 09:21:34;;;;;;;20.37;2.90;;;16.90;1.00;;;;;;5033361;28;20426;-70
2023/08/09 09:24:07;;;;;;;6.57;2.23;;;17.00;1.00;;;;;;5033208;28;20450;-70
2023/08/09 09:26:35;;;;;;;8.17;2.77;;;17.30;1.00;;;;;;5034133;28;21038;-68
2023/08/09 09:29:01;;;;;;;5.43;2.40;;;17.40;1.00;;;;;;5018121;28;20430;-68
2023/08/09 09:31:39;;;;;;;4.87;3.30;;;17.40;1.00;;;;;;5015170;28;20454;-69
2023/08/09 09:34:06;;;;;;;8.40;2.10;;;17.60;1.00;;;;;;5034953;28;20909;-68
2023/08/09 09:36:37;;;;;;;11.90;3.20;;;17.70;1.00;;;;;;5034189;28;20771;-68
2023/08/09 09:39:09;;;;;;;6.40;2.03;;;17.90;1.00;;;;;;5019178;28;20442;-67
2023/08/09 09:41:37;;;;;;;9.50;2.20;;;18.10;1.00;;;;;;5034227;28;20402;-68
2023/08/09 09:44:03;;;;;;;4.77;2.10;;;18.30;1.00;;;;;;5034757;28;20489;-67
2023/08/09 09:46:31;;;;;;;11.23;2.50;;;18.70;1.00;;;;;;5034177;28;20743;-68
2023/08/09 09:49:02;;;;;;;9.80;2.50;;;18.90;1.00;;;;;;5034842;28;20779;-68
2023/08/09 09:51:28;;;;;;;9.43;2.60;;;19.00;1.00;;;;;;5033574;28;20437;-67
2023/08/09 09:53:54;;;;;;;7.10;2.60;;;19.10;1.00;;;;;;5034596;28;20930;-69
2023/08/09 09:56:19;;;;;;;8.90;3.10;;;19.20;1.00;;;;;;5033504;28;20438;-68
2023/08/09 09:58:46;;;;;;;8.47;2.90;;;19.40;1.00;;;;;;5034516;28;20191;-68
2023/08/09 10:01:23;;;;;;;7.60;3.00;;;19.50;1.00;;;;;;5033834;28;20521;-70
2023/08/09 10:03:55;;;;;;;8.27;2.80;;;19.80;1.00;;;;;;5033633;28;20477;-70
2023/08/09 10:06:28;;;;;;;4.60;2.17;;;20.00;1.00;;;;;;5031959;28;20403;-68
2023/08/09 10:08:56;;;;;;;12.63;2.37;;;19.70;1.00;;;;;;5034003;28;20426;-67
2023/08/09 10:11:25;;;;;;;6.63;2.70;;;18.90;1.00;;;;;;5034345;28;20422;-67
2023/08/09 10:13:54;;;;;;;4.63;2.77;;;18.20;1.00;;;;;;5034293;28;20398;-66
2023/08/09 10:16:22;;;;;;;10.60;2.73;;;17.50;1.00;;;;;;5033460;28;20907;-67
2023/08/09 10:18:57;;;;;;;4.23;2.17;;;17.30;1.00;;;;;;5028334;28;21001;-67
2023/08/09 10:21:24;;;;;;;8.87;3.00;;;17.50;1.00;;;;;;5013683;28;20485;-71
2023/08/09 10:23:54;;;;;;;11.30;3.67;;;17.90;1.00;;;;;;5030599;28;20461;-68
2023/08/09 10:26:30;;;;;;;9.30;2.93;;;18.40;1.00;;;;;;5021843;28;20973;-69
2023/08/09 10:29:06;;;;;;;6.50;2.63;;;18.50;1.00;;;;;;5014143;28;20477;-67
2023/08/09 10:31:47;;;;;;;10.13;2.43;;;18.20;1.00;;;;;;5013865;28;20407;-71
2023/08/09 10:34:14;;;;;;;9.07;2.83;;;17.80;1.00;;;;;;5033961;28;20417;-66
2023/08/09 10:36:40;;;;;;;7.17;2.73;;;17.60;1.00;;;;;;5031282;28;20399;-68
2023/08/09 10:39:16;;;;;;;14.20;3.30;;;18.00;1.00;;;;;;5015058;28;20943;-69
2023/08/09 10:42:10;;;;;;;5.80;2.93;;;18.30;1.00;;;;;;5013955;28;20264;-69
2023/08/09 10:44:43;;;;;;;10.57;3.07;;;18.40;1.00;;;;;;5012883;28;20474;-67
2023/08/09 10:47:11;;;;;;;12.40;2.30;;;19.00;1.00;;;;;;5025104;28;20450;-68
2023/08/09 10:49:49;;;;;;;7.20;2.50;;;19.30;1.00;;;;;;5033753;28;20534;-68
2023/08/09 10:52:16;;;;;;;4.37;2.03;;;19.90;1.00;;;;;;5030847;28;20569;-71
2023/08/09 10:54:42;;;;;;;8.67;2.40;;;20.50;1.00;;;;;;5031804;28;20406;-69
2023/08/09 10:57:09;;;;;;;4.53;2.23;;;20.80;1.00;;;;;;5032841;28;20422;-67
2023/08/09 10:59:39;;;;;;;4.10;1.90;;;21.00;1.00;;;;;;5033583;28;20407;-68
2023/08/09 11:02:06;;;;;;;7.50;2.07;;;21.30;1.00;;;;;;5013849;28;20429;-67
2023/08/09 11:04:32;;;;;;;8.83;3.40;;;21.40;99.90;;;;;;5016135;28;20458;-68
2023/08/09 11:06:58;;;;;;;11.93;1.90;;;20.90;99.90;;;;;;5032505;28;20915;-70
2023/08/09 11:09:26;;;;;;;4.70;2.00;;;20.90;99.90;;;;;;5030694;28;20426;-71
2023/08/09 11:11:53;;;;;;;3.00;1.57;;;20.90;99.90;;;;;;5032887;28;20206;-69
2023/08/09 11:14:22;;;;;;;3.80;1.93;;;20.90;99.90;;;;;;5032083;28;20942;-68
2023/08/09 11:16:50;;;;;;;5.30;1.97;;;20.70;99.90;;;;;;5032445;28;20413;-69
2023/08/09 11:19:21;;;;;;;9.10;2.23;;;20.40;99.90;;;;;;5032379;28;20408;-68
2023/08/09 11:21:56;;;;;;;7.27;1.97;;;20.30;99.90;;;;;;5031431;28;20441;-68
2023/08/09 11:24:24;;;;;;;6.53;1.73;;;20.90;99.90;;;;;;5015863;28;20532;-70
2023/08/09 11:26:53;;;;;;;3.90;1.63;;;21.80;99.90;;;;;;5032204;28;20410;-71
2023/08/09 11:29:20;;;;;;;7.73;2.23;;;22.40;99.90;;;;;;5032964;28;20517;-66
2023/08/09 11:31:51;;;;;;;5.20;2.20;;;22.80;99.90;;;;;;5033072;28;20405;-68
2023/08/09 11:34:19;;;;;;;4.73;2.13;;;23.20;99.90;;;;;;5032839;28;20428;-67
2023/08/09 11:36:47;;;;;;;12.03;2.03;;;23.50;99.90;;;;;;5031961;28;20918;-71
2023/08/09 11:39:14;;;;;;;8.60;2.00;;;22.90;99.90;;;;;;5032429;28;20452;-69
2023/08/09 11:41:48;;;;;;;4.27;1.90;;;22.00;99.90;;;;;;5031934;28;20445;-69
2023/08/09 11:44:14;;;;;;;7.73;2.53;;;21.10;99.90;;;;;;5032716;28;20498;-66
2023/08/09 11:46:45;;;;;;;8.50;2.43;;;20.10;99.90;;;;;;5031731;28;20398;-69
2023/08/09 11:49:11;;;;;;;6.07;1.73;;;19.90;99.90;;;;;;5033300;28;20496;-68
2023/08/09 11:51:37;;;;;;;2.93;2.10;;;20.50;99.90;;;;;;5033024;28;20394;-69
2023/08/09 11:54:07;;;;;;;7.47;2.20;;;20.60;99.90;;;;;;5029843;28;20429;-67
2023/08/09 11:56:35;;;;;;;8.90;2.70;;;21.30;99.90;;;;;;5030688;28;20211;-67
2023/08/09 11:59:03;;;;;;;7.73;2.10;;;22.10;99.90;;;;;;5032920;28;20406;-68
2023/08/09 12:01:39;;;;;;;10.13;2.00;;;22.40;99.90;;;;;;5032840;28;20422;-69
2023/08/09 12:04:10;;;;;;;4.77;2.17;;;22.70;99.90;;;;;;5032159;28;20469;-69
2023/08/09 12:06:40;;;;;;;23.17;2.20;;;23.10;99.90;;;;;;5030030;28;20409;-66
2023/08/09 12:09:31;;;;;;;6.83;1.87;;;23.30;99.90;;;;;;5031400;28;20484;-67
2023/08/09 12:12:03;;;;;;;;;;;23.70;99.90;;;;;;5032256;28;20399;-70
2023/08/09 12:14:29;;;;;;;7.95;2.85;;;24.40;99.90;;;;;;5032176;28;20211;-67
2023/08/09 12:16:55;;;;;;;5.37;2.03;;;23.90;99.90;;;;;;5029344;28;20445;-69
2023/08/09 12:19:20;;;;;;;7.50;2.03;;;22.50;99.90;;;;;;5031199;28;20182;-65
2023/08/09 12:21:46;;;;;;;10.07;2.17;;;21.60;99.90;;;;;;5032776;28;20179;-67
2023/08/09 12:24:13;;;;;;;7.33;2.37;;;21.20;99.90;;;;;;5028938;28;20204;-66
2023/08/09 12:26:38;;;;;;;11.33;2.87;;;21.30;99.90;;;;;;5018341;28;20218;-69
2023/08/09 12:29:04;;;;;;;6.33;1.60;;;22.20;99.90;;;;;;5012781;28;20431;-69
2023/08/09 12:31:30;;;;;;;4.87;2.30;;;22.80;99.90;;;;;;5016694;28;20188;-66
2023/08/09 12:33:56;;;;;;;8.67;2.00;;;23.00;99.90;;;;;;5016263;28;20168;-70
2023/08/09 12:36:22;;;;;;;7.23;2.07;;;22.20;99.90;;;;;;5017789;28;20437;-67
2023/08/09 12:38:48;;;;;;;9.10;2.43;;;21.30;99.90;;;;;;5027081;28;20494;-67
2023/08/09 12:41:14;;;;;;;5.70;1.60;;;20.90;99.90;;;;;;5032408;28;20556;-68
2023/08/09 12:43:40;;;;;;;7.17;1.90;;;21.00;99.90;;;;;;5035100;28;20541;-67
2023/08/09 12:46:05;;;;;;;4.70;1.90;;;21.60;99.90;;;;;;5034985;28;20221;-69
2023/08/09 12:48:31;;;;;;;8.37;2.13;;;22.40;99.90;;;;;;5035811;28;20187;-66
2023/08/09 12:50:57;;;;;;;5.10;2.17;;;22.70;99.90;;;;;;5036037;28;20164;-68